sensor_id;sensor_type;location;lat;lon;timestamp;P1;durP1;ratioP1;P2;durP2;ratioP2
23952;SDS011;12163;49.316;6.092;2023-03-19T00:00:31;4.53;;;2.10;;
23952;SDS011;12163;49.316;6.092;2023-03-19T00:02:58;6.00;;;2.30;;
23952;SDS011;12163;49.316;6.092;2023-03-19T00:05:25;6.47;;;2.08;;
23952;SDS011;12163;49.316;6.092;2023-03-19T00:07:51;5.65;;;2.17;;
23952;SDS011;12163;49.316;6.092;2023-03-19T00:10:18;8.45;;;2.58;;
23952;SDS011;12163;49.316;6.092;2023-03-19T00:12:45;4.32;;;1.83;;
23952;SDS011;12163;49.316;6.092;2023-03-19T00:15:11;5.53;;;2.25;;
23952;SDS011;12163;49.316;6.092;2023-03-19T00:17:43;4.07;;;2.03;;
23952;SDS011;12163;49.316;6.092;2023-03-19T00:20:10;6.30;;;2.05;;
23952;SDS011;12163;49.316;6.092;2023-03-19T00:22:38;5.53;;;2.25;;
23952;SDS011;12163;49.316;6.092;2023-03-19T00:25:06;5.90;;;2.00;;
23952;SDS011;12163;49.316;6.092;2023-03-19T00:27:33;7.03;;;2.38;;
23952;SDS011;12163;49.316;6.092;2023-03-19T00:30:00;6.15;;;2.17;;
23952;SDS011;12163;49.316;6.092;2023-03-19T00:32:27;7.18;;;2.10;;
23952;SDS011;12163;49.316;6.092;2023-03-19T00:34:54;4.45;;;1.67;;
23952;SDS011;12163;49.316;6.092;2023-03-19T00:37:20;5.28;;;2.10;;
23952;SDS011;12163;49.316;6.092;2023-03-19T00:39:47;7.68;;;2.25;;
23952;SDS011;12163;49.316;6.092;2023-03-19T00:42:14;4.75;;;1.65;;
23952;SDS011;12163;49.316;6.092;2023-03-19T00:44:40;3.88;;;1.88;;
23952;SDS011;12163;49.316;6.092;2023-03-19T00:47:07;7.30;;;2.20;;
23952;SDS011;12163;49.316;6.092;2023-03-19T00:49:34;3.22;;;1.75;;
23952;SDS011;12163;49.316;6.092;2023-03-19T00:52:00;4.60;;;1.70;;
23952;SDS011;12163;49.316;6.092;2023-03-19T00:54:27;4.60;;;1.55;;
23952;SDS011;12163;49.316;6.092;2023-03-19T00:56:53;3.78;;;1.50;;
23952;SDS011;12163;49.316;6.092;2023-03-19T00:59:20;3.47;;;1.40;;
23952;SDS011;12163;49.316;6.092;2023-03-19T01:01:46;5.25;;;1.92;;
23952;SDS011;12163;49.316;6.092;2023-03-19T01:04:13;3.85;;;1.75;;
23952;SDS011;12163;49.316;6.092;2023-03-19T01:06:40;3.38;;;1.48;;
23952;SDS011;12163;49.316;6.092;2023-03-19T01:09:07;3.28;;;1.60;;
23952;SDS011;12163;49.316;6.092;2023-03-19T01:11:33;2.92;;;1.65;;
23952;SDS011;12163;49.316;6.092;2023-03-19T01:14:01;2.20;;;1.50;;
23952;SDS011;12163;49.316;6.092;2023-03-19T01:16:28;5.22;;;1.70;;
23952;SDS011;12163;49.316;6.092;2023-03-19T01:18:55;3.80;;;1.73;;
23952;SDS011;12163;49.316;6.092;2023-03-19T01:21:21;2.53;;;1.42;;
23952;SDS011;12163;49.316;6.092;2023-03-19T01:23:48;3.58;;;1.60;;
23952;SDS011;12163;49.316;6.092;2023-03-19T01:26:17;8.85;;;1.75;;
23952;SDS011;12163;49.316;6.092;2023-03-19T01:28:44;3.50;;;1.60;;
23952;SDS011;12163;49.316;6.092;2023-03-19T01:31:11;4.80;;;1.70;;
23952;SDS011;12163;49.316;6.092;2023-03-19T01:33:37;4.43;;;1.65;;
23952;SDS011;12163;49.316;6.092;2023-03-19T01:36:04;4.13;;;1.67;;
23952;SDS011;12163;49.316;6.092;2023-03-19T01:38:31;4.47;;;1.60;;
23952;SDS011;12163;49.316;6.092;2023-03-19T01:40:58;3.47;;;1.70;;
23952;SDS011;12163;49.316;6.092;2023-03-19T01:43:26;3.35;;;1.50;;
23952;SDS011;12163;49.316;6.092;2023-03-19T01:45:54;3.38;;;1.33;;
23952;SDS011;12163;49.316;6.092;2023-03-19T01:48:26;2.70;;;1.52;;
23952;SDS011;12163;49.316;6.092;2023-03-19T01:50:57;2.95;;;1.33;;
23952;SDS011;12163;49.316;6.092;2023-03-19T01:53:26;4.05;;;1.40;;
23952;SDS011;12163;49.316;6.092;2023-03-19T01:55:58;6.18;;;1.67;;
23952;SDS011;12163;49.316;6.092;2023-03-19T01:58:32;4.00;;;1.40;;
23952;SDS011;12163;49.316;6.092;2023-03-19T02:00:59;4.72;;;1.48;;
23952;SDS011;12163;49.316;6.092;2023-03-19T02:03:25;3.95;;;1.50;;
23952;SDS011;12163;49.316;6.092;2023-03-19T02:05:52;4.25;;;1.50;;
23952;SDS011;12163;49.316;6.092;2023-03-19T02:08:21;5.22;;;1.80;;
23952;SDS011;12163;49.316;6.092;2023-03-19T02:10:49;3.25;;;1.70;;
23952;SDS011;12163;49.316;6.092;2023-03-19T02:13:18;4.32;;;1.70;;
23952;SDS011;12163;49.316;6.092;2023-03-19T02:15:44;5.85;;;1.60;;
23952;SDS011;12163;49.316;6.092;2023-03-19T02:18:11;5.97;;;1.60;;
23952;SDS011;12163;49.316;6.092;2023-03-19T02:26:10;5.03;;;1.80;;
23952;SDS011;12163;49.316;6.092;2023-03-19T02:28:40;5.40;;;1.55;;
23952;SDS011;12163;49.316;6.092;2023-03-19T02:31:09;4.07;;;1.48;;
23952;SDS011;12163;49.316;6.092;2023-03-19T02:33:37;2.53;;;1.60;;
23952;SDS011;12163;49.316;6.092;2023-03-19T02:36:05;4.60;;;1.60;;
23952;SDS011;12163;49.316;6.092;2023-03-19T02:38:35;3.72;;;1.73;;
23952;SDS011;12163;49.316;6.092;2023-03-19T02:41:06;3.78;;;1.90;;
23952;SDS011;12163;49.316;6.092;2023-03-19T02:43:37;4.68;;;2.05;;
23952;SDS011;12163;49.316;6.092;2023-03-19T02:46:06;4.20;;;1.98;;
23952;SDS011;12163;49.316;6.092;2023-03-19T02:48:36;4.45;;;2.42;;
23952;SDS011;12163;49.316;6.092;2023-03-19T02:51:04;7.43;;;2.00;;
23952;SDS011;12163;49.316;6.092;2023-03-19T02:53:31;6.53;;;2.10;;
23952;SDS011;12163;49.316;6.092;2023-03-19T02:55:59;3.80;;;1.85;;
23952;SDS011;12163;49.316;6.092;2023-03-19T02:58:26;3.65;;;2.00;;
23952;SDS011;12163;49.316;6.092;2023-03-19T03:00:53;4.53;;;2.13;;
23952;SDS011;12163;49.316;6.092;2023-03-19T03:03:20;3.63;;;1.40;;
23952;SDS011;12163;49.316;6.092;2023-03-19T03:05:47;4.85;;;2.15;;
23952;SDS011;12163;49.316;6.092;2023-03-19T03:08:13;8.13;;;2.20;;
23952;SDS011;12163;49.316;6.092;2023-03-19T03:10:41;4.82;;;1.83;;
23952;SDS011;12163;49.316;6.092;2023-03-19T03:13:07;5.43;;;2.15;;
23952;SDS011;12163;49.316;6.092;2023-03-19T03:15:34;6.43;;;2.03;;
23952;SDS011;12163;49.316;6.092;2023-03-19T03:18:00;6.15;;;2.00;;
23952;SDS011;12163;49.316;6.092;2023-03-19T03:20:27;2.38;;;1.48;;
23952;SDS011;12163;49.316;6.092;2023-03-19T03:22:54;5.18;;;1.83;;
23952;SDS011;12163;49.316;6.092;2023-03-19T03:25:21;6.72;;;1.92;;
23952;SDS011;12163;49.316;6.092;2023-03-19T03:27:47;5.47;;;2.05;;
23952;SDS011;12163;49.316;6.092;2023-03-19T03:30:14;3.70;;;2.20;;
23952;SDS011;12163;49.316;6.092;2023-03-19T03:32:41;5.40;;;2.05;;
23952;SDS011;12163;49.316;6.092;2023-03-19T03:35:09;7.60;;;2.88;;
23952;SDS011;12163;49.316;6.092;2023-03-19T03:37:36;5.60;;;2.67;;
23952;SDS011;12163;49.316;6.092;2023-03-19T03:40:03;9.02;;;3.00;;
23952;SDS011;12163;49.316;6.092;2023-03-19T03:42:34;5.57;;;2.72;;
23952;SDS011;12163;49.316;6.092;2023-03-19T03:45:02;7.50;;;2.28;;
23952;SDS011;12163;49.316;6.092;2023-03-19T03:47:30;6.00;;;2.05;;
23952;SDS011;12163;49.316;6.092;2023-03-19T03:49:57;6.78;;;2.35;;
23952;SDS011;12163;49.316;6.092;2023-03-19T03:52:24;6.03;;;2.47;;
23952;SDS011;12163;49.316;6.092;2023-03-19T03:54:50;4.03;;;2.30;;
23952;SDS011;12163;49.316;6.092;2023-03-19T03:57:17;4.18;;;2.10;;
23952;SDS011;12163;49.316;6.092;2023-03-19T03:59:43;5.18;;;2.60;;
23952;SDS011;12163;49.316;6.092;2023-03-19T04:02:10;6.00;;;3.22;;
23952;SDS011;12163;49.316;6.092;2023-03-19T04:04:37;7.32;;;3.83;;
23952;SDS011;12163;49.316;6.092;2023-03-19T04:07:04;6.72;;;2.20;;
23952;SDS011;12163;49.316;6.092;2023-03-19T04:09:32;7.20;;;2.03;;
23952;SDS011;12163;49.316;6.092;2023-03-19T04:11:58;10.55;;;2.35;;
23952;SDS011;12163;49.316;6.092;2023-03-19T04:14:25;3.72;;;2.13;;
23952;SDS011;12163;49.316;6.092;2023-03-19T04:16:52;8.07;;;2.67;;
23952;SDS011;12163;49.316;6.092;2023-03-19T04:19:19;5.47;;;2.08;;
23952;SDS011;12163;49.316;6.092;2023-03-19T04:21:46;6.47;;;1.75;;
23952;SDS011;12163;49.316;6.092;2023-03-19T04:24:12;6.05;;;2.45;;
23952;SDS011;12163;49.316;6.092;2023-03-19T04:26:39;6.55;;;2.15;;
23952;SDS011;12163;49.316;6.092;2023-03-19T04:29:06;5.80;;;2.60;;
23952;SDS011;12163;49.316;6.092;2023-03-19T04:31:36;10.70;;;2.20;;
23952;SDS011;12163;49.316;6.092;2023-03-19T04:34:03;4.97;;;2.30;;
23952;SDS011;12163;49.316;6.092;2023-03-19T04:36:30;5.45;;;2.42;;
23952;SDS011;12163;49.316;6.092;2023-03-19T04:38:57;8.20;;;2.58;;
23952;SDS011;12163;49.316;6.092;2023-03-19T04:41:24;8.38;;;2.83;;
23952;SDS011;12163;49.316;6.092;2023-03-19T04:43:51;7.50;;;3.50;;
23952;SDS011;12163;49.316;6.092;2023-03-19T04:46:18;6.43;;;2.75;;
23952;SDS011;12163;49.316;6.092;2023-03-19T04:48:44;10.85;;;3.33;;
23952;SDS011;12163;49.316;6.092;2023-03-19T04:51:11;14.13;;;6.00;;
23952;SDS011;12163;49.316;6.092;2023-03-19T04:53:38;4.15;;;2.30;;
23952;SDS011;12163;49.316;6.092;2023-03-19T04:56:05;4.85;;;1.92;;
23952;SDS011;12163;49.316;6.092;2023-03-19T04:58:33;3.05;;;1.83;;
23952;SDS011;12163;49.316;6.092;2023-03-19T05:01:00;6.18;;;2.00;;
23952;SDS011;12163;49.316;6.092;2023-03-19T05:03:27;4.60;;;1.63;;
23952;SDS011;12163;49.316;6.092;2023-03-19T05:05:54;5.75;;;1.85;;
23952;SDS011;12163;49.316;6.092;2023-03-19T05:08:20;4.70;;;2.03;;
23952;SDS011;12163;49.316;6.092;2023-03-19T05:10:47;5.22;;;1.70;;
23952;SDS011;12163;49.316;6.092;2023-03-19T05:13:13;6.10;;;1.85;;
23952;SDS011;12163;49.316;6.092;2023-03-19T05:15:41;3.58;;;1.70;;
23952;SDS011;12163;49.316;6.092;2023-03-19T05:18:11;4.53;;;1.83;;
23952;SDS011;12163;49.316;6.092;2023-03-19T05:20:38;5.45;;;2.08;;
23952;SDS011;12163;49.316;6.092;2023-03-19T05:23:05;5.03;;;1.70;;
23952;SDS011;12163;49.316;6.092;2023-03-19T05:25:32;8.95;;;2.00;;
23952;SDS011;12163;49.316;6.092;2023-03-19T05:28:01;6.00;;;1.85;;
23952;SDS011;12163;49.316;6.092;2023-03-19T05:30:28;7.97;;;2.03;;
23952;SDS011;12163;49.316;6.092;2023-03-19T05:32:55;3.85;;;1.98;;
23952;SDS011;12163;49.316;6.092;2023-03-19T05:35:23;4.28;;;1.70;;
23952;SDS011;12163;49.316;6.092;2023-03-19T05:37:51;4.28;;;2.10;;
23952;SDS011;12163;49.316;6.092;2023-03-19T05:40:19;5.30;;;1.70;;
23952;SDS011;12163;49.316;6.092;2023-03-19T05:42:45;5.82;;;2.00;;
23952;SDS011;12163;49.316;6.092;2023-03-19T05:45:12;4.18;;;2.03;;
23952;SDS011;12163;49.316;6.092;2023-03-19T05:47:39;5.45;;;1.90;;
23952;SDS011;12163;49.316;6.092;2023-03-19T05:50:06;7.32;;;2.47;;
23952;SDS011;12163;49.316;6.092;2023-03-19T05:52:32;4.18;;;1.60;;
23952;SDS011;12163;49.316;6.092;2023-03-19T05:54:59;5.25;;;1.90;;
23952;SDS011;12163;49.316;6.092;2023-03-19T05:57:26;5.53;;;1.10;;
23952;SDS011;12163;49.316;6.092;2023-03-19T05:59:52;3.58;;;1.60;;
23952;SDS011;12163;49.316;6.092;2023-03-19T06:02:19;6.75;;;1.90;;
23952;SDS011;12163;49.316;6.092;2023-03-19T06:04:46;4.97;;;1.67;;
23952;SDS011;12163;49.316;6.092;2023-03-19T06:07:12;3.78;;;1.73;;
23952;SDS011;12163;49.316;6.092;2023-03-19T06:09:39;5.63;;;2.03;;
23952;SDS011;12163;49.316;6.092;2023-03-19T06:12:06;5.72;;;1.50;;
23952;SDS011;12163;49.316;6.092;2023-03-19T06:14:33;7.45;;;1.88;;
23952;SDS011;12163;49.316;6.092;2023-03-19T06:17:00;3.63;;;1.60;;
23952;SDS011;12163;49.316;6.092;2023-03-19T06:19:26;4.07;;;2.05;;
23952;SDS011;12163;49.316;6.092;2023-03-19T06:21:53;4.40;;;2.50;;
23952;SDS011;12163;49.316;6.092;2023-03-19T06:24:19;5.72;;;2.00;;
23952;SDS011;12163;49.316;6.092;2023-03-19T06:26:46;6.68;;;2.05;;
23952;SDS011;12163;49.316;6.092;2023-03-19T06:29:12;4.18;;;1.88;;
23952;SDS011;12163;49.316;6.092;2023-03-19T06:31:39;7.63;;;1.70;;
23952;SDS011;12163;49.316;6.092;2023-03-19T06:34:07;7.57;;;2.03;;
23952;SDS011;12163;49.316;6.092;2023-03-19T06:36:33;3.67;;;2.10;;
23952;SDS011;12163;49.316;6.092;2023-03-19T06:39:00;7.75;;;2.35;;
23952;SDS011;12163;49.316;6.092;2023-03-19T06:41:28;6.75;;;1.90;;
23952;SDS011;12163;49.316;6.092;2023-03-19T06:43:55;5.10;;;2.15;;
23952;SDS011;12163;49.316;6.092;2023-03-19T06:46:22;5.22;;;2.17;;
23952;SDS011;12163;49.316;6.092;2023-03-19T06:48:49;5.90;;;2.20;;
23952;SDS011;12163;49.316;6.092;2023-03-19T06:51:15;9.07;;;2.55;;
23952;SDS011;12163;49.316;6.092;2023-03-19T06:53:42;6.50;;;2.45;;
23952;SDS011;12163;49.316;6.092;2023-03-19T06:56:09;5.63;;;2.28;;
23952;SDS011;12163;49.316;6.092;2023-03-19T06:58:35;10.35;;;2.85;;
23952;SDS011;12163;49.316;6.092;2023-03-19T07:01:02;6.75;;;2.72;;
23952;SDS011;12163;49.316;6.092;2023-03-19T07:03:29;5.28;;;2.67;;
23952;SDS011;12163;49.316;6.092;2023-03-19T07:05:56;11.80;;;2.80;;
23952;SDS011;12163;49.316;6.092;2023-03-19T07:08:22;9.98;;;3.00;;
23952;SDS011;12163;49.316;6.092;2023-03-19T07:10:53;5.38;;;2.42;;
23952;SDS011;12163;49.316;6.092;2023-03-19T07:13:19;6.70;;;3.08;;
23952;SDS011;12163;49.316;6.092;2023-03-19T07:15:46;6.25;;;2.83;;
23952;SDS011;12163;49.316;6.092;2023-03-19T07:18:13;7.28;;;2.88;;
23952;SDS011;12163;49.316;6.092;2023-03-19T07:20:39;8.68;;;2.88;;
23952;SDS011;12163;49.316;6.092;2023-03-19T07:23:06;6.72;;;3.05;;
23952;SDS011;12163;49.316;6.092;2023-03-19T07:25:32;6.95;;;3.25;;
23952;SDS011;12163;49.316;6.092;2023-03-19T07:27:59;6.32;;;2.85;;
23952;SDS011;12163;49.316;6.092;2023-03-19T07:30:25;5.75;;;2.78;;
23952;SDS011;12163;49.316;6.092;2023-03-19T07:32:52;9.43;;;4.00;;
23952;SDS011;12163;49.316;6.092;2023-03-19T07:35:20;9.35;;;5.45;;
23952;SDS011;12163;49.316;6.092;2023-03-19T07:37:47;9.43;;;6.15;;
23952;SDS011;12163;49.316;6.092;2023-03-19T07:40:14;8.77;;;4.35;;
23952;SDS011;12163;49.316;6.092;2023-03-19T07:42:40;7.15;;;3.45;;
23952;SDS011;12163;49.316;6.092;2023-03-19T07:45:10;6.50;;;3.60;;
23952;SDS011;12163;49.316;6.092;2023-03-19T07:47:37;10.50;;;3.85;;
23952;SDS011;12163;49.316;6.092;2023-03-19T07:50:05;10.10;;;3.90;;
23952;SDS011;12163;49.316;6.092;2023-03-19T07:52:32;11.45;;;4.25;;
23952;SDS011;12163;49.316;6.092;2023-03-19T07:54:59;9.98;;;3.95;;
23952;SDS011;12163;49.316;6.092;2023-03-19T07:57:26;9.93;;;3.78;;
23952;SDS011;12163;49.316;6.092;2023-03-19T07:59:53;12.63;;;3.85;;
23952;SDS011;12163;49.316;6.092;2023-03-19T08:02:20;7.38;;;2.65;;
23952;SDS011;12163;49.316;6.092;2023-03-19T08:04:48;9.35;;;2.60;;
23952;SDS011;12163;49.316;6.092;2023-03-19T08:07:15;6.97;;;2.63;;
23952;SDS011;12163;49.316;6.092;2023-03-19T08:09:42;8.25;;;3.97;;
23952;SDS011;12163;49.316;6.092;2023-03-19T08:12:09;8.50;;;3.25;;
23952;SDS011;12163;49.316;6.092;2023-03-19T08:14:36;8.57;;;3.45;;
23952;SDS011;12163;49.316;6.092;2023-03-19T08:17:03;8.25;;;4.28;;
23952;SDS011;12163;49.316;6.092;2023-03-19T08:19:29;13.70;;;6.60;;
23952;SDS011;12163;49.316;6.092;2023-03-19T08:21:57;6.88;;;4.43;;
23952;SDS011;12163;49.316;6.092;2023-03-19T08:24:23;6.40;;;3.03;;
23952;SDS011;12163;49.316;6.092;2023-03-19T08:26:51;7.10;;;3.58;;
23952;SDS011;12163;49.316;6.092;2023-03-19T08:29:18;7.03;;;3.60;;
23952;SDS011;12163;49.316;6.092;2023-03-19T08:31:45;5.95;;;3.10;;
23952;SDS011;12163;49.316;6.092;2023-03-19T08:34:11;6.13;;;3.05;;
23952;SDS011;12163;49.316;6.092;2023-03-19T08:36:38;6.45;;;3.17;;
23952;SDS011;12163;49.316;6.092;2023-03-19T08:39:05;8.00;;;2.92;;
23952;SDS011;12163;49.316;6.092;2023-03-19T08:41:31;7.57;;;2.97;;
23952;SDS011;12163;49.316;6.092;2023-03-19T08:43:58;8.40;;;3.53;;
23952;SDS011;12163;49.316;6.092;2023-03-19T08:46:24;8.48;;;3.53;;
23952;SDS011;12163;49.316;6.092;2023-03-19T08:48:52;6.68;;;3.20;;
23952;SDS011;12163;49.316;6.092;2023-03-19T08:51:19;8.90;;;3.35;;
23952;SDS011;12163;49.316;6.092;2023-03-19T08:53:46;10.25;;;3.45;;
23952;SDS011;12163;49.316;6.092;2023-03-19T08:56:12;6.78;;;3.45;;
23952;SDS011;12163;49.316;6.092;2023-03-19T08:58:39;11.40;;;4.05;;
23952;SDS011;12163;49.316;6.092;2023-03-19T09:01:08;11.77;;;3.63;;
23952;SDS011;12163;49.316;6.092;2023-03-19T09:03:37;8.27;;;3.63;;
23952;SDS011;12163;49.316;6.092;2023-03-19T09:06:05;10.77;;;4.78;;
23952;SDS011;12163;49.316;6.092;2023-03-19T09:08:34;5.13;;;2.97;;
23952;SDS011;12163;49.316;6.092;2023-03-19T09:11:02;5.78;;;2.60;;
23952;SDS011;12163;49.316;6.092;2023-03-19T09:13:30;6.65;;;2.63;;
23952;SDS011;12163;49.316;6.092;2023-03-19T09:15:56;7.05;;;2.50;;
23952;SDS011;12163;49.316;6.092;2023-03-19T09:18:23;7.18;;;2.67;;
23952;SDS011;12163;49.316;6.092;2023-03-19T09:20:51;5.75;;;2.63;;
23952;SDS011;12163;49.316;6.092;2023-03-19T09:23:19;5.35;;;2.47;;
23952;SDS011;12163;49.316;6.092;2023-03-19T09:25:47;6.18;;;2.50;;
23952;SDS011;12163;49.316;6.092;2023-03-19T09:28:14;6.80;;;2.47;;
23952;SDS011;12163;49.316;6.092;2023-03-19T09:30:41;6.07;;;2.95;;
23952;SDS011;12163;49.316;6.092;2023-03-19T09:33:08;5.85;;;2.45;;
23952;SDS011;12163;49.316;6.092;2023-03-19T09:35:35;4.97;;;2.22;;
23952;SDS011;12163;49.316;6.092;2023-03-19T09:38:02;4.15;;;2.40;;
23952;SDS011;12163;49.316;6.092;2023-03-19T09:40:32;5.20;;;2.58;;
23952;SDS011;12163;49.316;6.092;2023-03-19T09:45:47;6.25;;;2.70;;
23952;SDS011;12163;49.316;6.092;2023-03-19T09:48:15;7.47;;;2.67;;
23952;SDS011;12163;49.316;6.092;2023-03-19T09:50:54;4.38;;;2.13;;
23952;SDS011;12163;49.316;6.092;2023-03-19T09:53:56;4.43;;;2.30;;
23952;SDS011;12163;49.316;6.092;2023-03-19T09:56:20;5.30;;;2.40;;
23952;SDS011;12163;49.316;6.092;2023-03-19T09:58:47;6.40;;;2.10;;
23952;SDS011;12163;49.316;6.092;2023-03-19T10:01:19;3.72;;;2.40;;
23952;SDS011;12163;49.316;6.092;2023-03-19T10:04:03;6.57;;;2.33;;
23952;SDS011;12163;49.316;6.092;2023-03-19T10:06:44;3.33;;;2.10;;
23952;SDS011;12163;49.316;6.092;2023-03-19T10:17:37;5.25;;;2.70;;
23952;SDS011;12163;49.316;6.092;2023-03-19T10:22:46;4.85;;;2.10;;
23952;SDS011;12163;49.316;6.092;2023-03-19T10:27:50;7.00;;;2.75;;
23952;SDS011;12163;49.316;6.092;2023-03-19T10:30:24;5.57;;;2.70;;
23952;SDS011;12163;49.316;6.092;2023-03-19T10:33:25;10.40;;;2.92;;
23952;SDS011;12163;49.316;6.092;2023-03-19T10:35:47;7.05;;;2.70;;
23952;SDS011;12163;49.316;6.092;2023-03-19T10:38:21;6.72;;;2.65;;
23952;SDS011;12163;49.316;6.092;2023-03-19T10:43:42;6.05;;;2.42;;
23952;SDS011;12163;49.316;6.092;2023-03-19T10:46:12;4.75;;;2.35;;
23952;SDS011;12163;49.316;6.092;2023-03-19T10:48:44;7.47;;;2.60;;
23952;SDS011;12163;49.316;6.092;2023-03-19T10:51:24;5.63;;;3.05;;
23952;SDS011;12163;49.316;6.092;2023-03-19T10:53:52;6.60;;;2.70;;
23952;SDS011;12163;49.316;6.092;2023-03-19T10:56:21;5.28;;;2.97;;
23952;SDS011;12163;49.316;6.092;2023-03-19T10:59:09;3.95;;;2.38;;
23952;SDS011;12163;49.316;6.092;2023-03-19T11:02:22;4.25;;;2.80;;
23952;SDS011;12163;49.316;6.092;2023-03-19T11:07:38;7.80;;;3.33;;
23952;SDS011;12163;49.316;6.092;2023-03-19T11:10:11;5.53;;;2.75;;
23952;SDS011;12163;49.316;6.092;2023-03-19T11:12:40;5.50;;;2.72;;
23952;SDS011;12163;49.316;6.092;2023-03-19T11:15:19;4.75;;;2.38;;
23952;SDS011;12163;49.316;6.092;2023-03-19T11:17:55;5.25;;;2.42;;
23952;SDS011;12163;49.316;6.092;2023-03-19T11:22:53;4.15;;;2.00;;
23952;SDS011;12163;49.316;6.092;2023-03-19T11:25:27;5.07;;;1.83;;
23952;SDS011;12163;49.316;6.092;2023-03-19T11:27:58;3.72;;;2.03;;
23952;SDS011;12163;49.316;6.092;2023-03-19T11:36:29;2.53;;;1.60;;
23952;SDS011;12163;49.316;6.092;2023-03-19T11:44:23;2.83;;;1.38;;
23952;SDS011;12163;49.316;6.092;2023-03-19T11:47:00;3.88;;;1.30;;
23952;SDS011;12163;49.316;6.092;2023-03-19T12:00:50;2.90;;;1.40;;
23952;SDS011;12163;49.316;6.092;2023-03-19T12:14:17;1.35;;;1.00;;
23952;SDS011;12163;49.316;6.092;2023-03-19T12:31:11;3.08;;;1.10;;
23952;SDS011;12163;49.316;6.092;2023-03-19T12:36:36;5.77;;;0.87;;
23952;SDS011;12163;49.316;6.092;2023-03-19T12:39:17;2.35;;;1.05;;
23952;SDS011;12163;49.316;6.092;2023-03-19T12:41:49;2.20;;;0.90;;
23952;SDS011;12163;49.316;6.092;2023-03-19T12:44:18;2.33;;;1.00;;
23952;SDS011;12163;49.316;6.092;2023-03-19T12:46:56;1.95;;;0.70;;
23952;SDS011;12163;49.316;6.092;2023-03-19T12:49:34;2.15;;;0.90;;
23952;SDS011;12163;49.316;6.092;2023-03-19T12:54:47;1.95;;;0.98;;
23952;SDS011;12163;49.316;6.092;2023-03-19T12:57:20;1.27;;;0.60;;
23952;SDS011;12163;49.316;6.092;2023-03-19T13:00:06;3.35;;;0.90;;
23952;SDS011;12163;49.316;6.092;2023-03-19T13:02:43;1.17;;;0.68;;
23952;SDS011;12163;49.316;6.092;2023-03-19T13:05:31;3.03;;;0.88;;
23952;SDS011;12163;49.316;6.092;2023-03-19T13:11:01;3.05;;;0.88;;
23952;SDS011;12163;49.316;6.092;2023-03-19T13:19:49;0.93;;;0.40;;
23952;SDS011;12163;49.316;6.092;2023-03-19T13:22:33;1.58;;;0.80;;
23952;SDS011;12163;49.316;6.092;2023-03-19T13:25:02;1.17;;;0.70;;
23952;SDS011;12163;49.316;6.092;2023-03-19T13:27:32;2.72;;;0.65;;
23952;SDS011;12163;49.316;6.092;2023-03-19T13:35:08;1.80;;;0.55;;
23952;SDS011;12163;49.316;6.092;2023-03-19T13:37:53;1.80;;;0.60;;
23952;SDS011;12163;49.316;6.092;2023-03-19T13:43:20;2.35;;;0.85;;
23952;SDS011;12163;49.316;6.092;2023-03-19T13:53:38;2.08;;;0.98;;
23952;SDS011;12163;49.316;6.092;2023-03-19T13:56:08;0.70;;;0.70;;
23952;SDS011;12163;49.316;6.092;2023-03-19T13:59:37;1.50;;;0.80;;
23952;SDS011;12163;49.316;6.092;2023-03-19T14:01:46;2.08;;;0.73;;
23952;SDS011;12163;49.316;6.092;2023-03-19T14:04:17;2.55;;;0.80;;
23952;SDS011;12163;49.316;6.092;2023-03-19T14:06:50;2.05;;;0.90;;
23952;SDS011;12163;49.316;6.092;2023-03-19T14:10:04;1.05;;;0.63;;
23952;SDS011;12163;49.316;6.092;2023-03-19T14:15:13;3.70;;;0.85;;
23952;SDS011;12163;49.316;6.092;2023-03-19T14:17:45;1.73;;;0.85;;
23952;SDS011;12163;49.316;6.092;2023-03-19T14:20:21;3.75;;;1.00;;
23952;SDS011;12163;49.316;6.092;2023-03-19T14:28:52;1.67;;;0.80;;
23952;SDS011;12163;49.316;6.092;2023-03-19T14:34:48;8.63;;;4.45;;
23952;SDS011;12163;49.316;6.092;2023-03-19T14:40:12;1.92;;;0.90;;
23952;SDS011;12163;49.316;6.092;2023-03-19T14:45:30;1.10;;;0.57;;
23952;SDS011;12163;49.316;6.092;2023-03-19T14:56:10;1.10;;;0.70;;
23952;SDS011;12163;49.316;6.092;2023-03-19T14:58:51;0.85;;;0.50;;
23952;SDS011;12163;49.316;6.092;2023-03-19T15:01:56;2.30;;;0.50;;
23952;SDS011;12163;49.316;6.092;2023-03-19T15:04:22;1.38;;;0.50;;
23952;SDS011;12163;49.316;6.092;2023-03-19T15:06:52;1.75;;;0.57;;
23952;SDS011;12163;49.316;6.092;2023-03-19T15:09:25;0.40;;;0.40;;
23952;SDS011;12163;49.316;6.092;2023-03-19T15:17:27;1.15;;;0.55;;
23952;SDS011;12163;49.316;6.092;2023-03-19T15:22:56;2.97;;;0.60;;
23952;SDS011;12163;49.316;6.092;2023-03-19T15:28:24;1.27;;;0.63;;
23952;SDS011;12163;49.316;6.092;2023-03-19T15:30:54;1.00;;;0.70;;
23952;SDS011;12163;49.316;6.092;2023-03-19T15:33:45;1.45;;;0.73;;
23952;SDS011;12163;49.316;6.092;2023-03-19T15:36:28;1.10;;;0.70;;
23952;SDS011;12163;49.316;6.092;2023-03-19T15:41:37;1.95;;;0.70;;
23952;SDS011;12163;49.316;6.092;2023-03-19T15:44:10;2.33;;;0.93;;
23952;SDS011;12163;49.316;6.092;2023-03-19T15:46:41;1.40;;;0.98;;
23952;SDS011;12163;49.316;6.092;2023-03-19T15:49:12;1.80;;;0.70;;
23952;SDS011;12163;49.316;6.092;2023-03-19T15:51:46;2.15;;;0.90;;
23952;SDS011;12163;49.316;6.092;2023-03-19T15:54:16;1.10;;;0.90;;
23952;SDS011;12163;49.316;6.092;2023-03-19T15:56:44;3.42;;;0.95;;
23952;SDS011;12163;49.316;6.092;2023-03-19T15:59:11;1.63;;;1.05;;
23952;SDS011;12163;49.316;6.092;2023-03-19T16:01:38;1.45;;;0.98;;
23952;SDS011;12163;49.316;6.092;2023-03-19T16:04:05;1.13;;;0.80;;
23952;SDS011;12163;49.316;6.092;2023-03-19T16:06:37;9.82;;;5.85;;
23952;SDS011;12163;49.316;6.092;2023-03-19T16:11:49;0.93;;;0.80;;
23952;SDS011;12163;49.316;6.092;2023-03-19T16:14:21;1.25;;;1.05;;
23952;SDS011;12163;49.316;6.092;2023-03-19T16:17:08;1.13;;;0.90;;
23952;SDS011;12163;49.316;6.092;2023-03-19T16:19:37;1.58;;;0.90;;
23952;SDS011;12163;49.316;6.092;2023-03-19T16:22:20;2.53;;;1.13;;
23952;SDS011;12163;49.316;6.092;2023-03-19T16:24:48;2.80;;;1.00;;
23952;SDS011;12163;49.316;6.092;2023-03-19T16:27:19;1.10;;;0.90;;
23952;SDS011;12163;49.316;6.092;2023-03-19T16:29:57;1.92;;;1.20;;
23952;SDS011;12163;49.316;6.092;2023-03-19T16:32:29;1.70;;;0.88;;
23952;SDS011;12163;49.316;6.092;2023-03-19T16:35:03;2.67;;;1.50;;
23952;SDS011;12163;49.316;6.092;2023-03-19T16:42:38;4.85;;;1.50;;
23952;SDS011;12163;49.316;6.092;2023-03-19T16:47:41;1.30;;;1.00;;
23952;SDS011;12163;49.316;6.092;2023-03-19T16:50:19;3.20;;;1.25;;
23952;SDS011;12163;49.316;6.092;2023-03-19T16:52:48;1.10;;;1.00;;
23952;SDS011;12163;49.316;6.092;2023-03-19T16:55:18;1.67;;;1.10;;
23952;SDS011;12163;49.316;6.092;2023-03-19T17:00:40;2.33;;;1.55;;
23952;SDS011;12163;49.316;6.092;2023-03-19T17:03:12;2.45;;;1.30;;
23952;SDS011;12163;49.316;6.092;2023-03-19T17:05:41;2.08;;;1.13;;
23952;SDS011;12163;49.316;6.092;2023-03-19T17:08:08;2.97;;;1.67;;
23952;SDS011;12163;49.316;6.092;2023-03-19T17:10:35;3.42;;;1.48;;
23952;SDS011;12163;49.316;6.092;2023-03-19T17:13:04;5.40;;;1.17;;
23952;SDS011;12163;49.316;6.092;2023-03-19T17:15:35;3.22;;;1.52;;
23952;SDS011;12163;49.316;6.092;2023-03-19T17:18:09;2.08;;;1.20;;
23952;SDS011;12163;49.316;6.092;2023-03-19T17:20:45;2.58;;;0.88;;
23952;SDS011;12163;49.316;6.092;2023-03-19T17:23:16;4.45;;;1.00;;
23952;SDS011;12163;49.316;6.092;2023-03-19T17:25:43;2.70;;;1.05;;
23952;SDS011;12163;49.316;6.092;2023-03-19T17:28:10;2.15;;;0.82;;
23952;SDS011;12163;49.316;6.092;2023-03-19T17:30:37;3.35;;;1.10;;
23952;SDS011;12163;49.316;6.092;2023-03-19T17:33:04;1.00;;;0.90;;
23952;SDS011;12163;49.316;6.092;2023-03-19T17:35:31;1.65;;;1.20;;
23952;SDS011;12163;49.316;6.092;2023-03-19T17:37:59;2.22;;;1.48;;
23952;SDS011;12163;49.316;6.092;2023-03-19T17:40:26;8.13;;;2.10;;
23952;SDS011;12163;49.316;6.092;2023-03-19T17:42:53;2.42;;;1.63;;